»·PEaware :: DAL4243 KABQ-KLAX

DAL4243 :: KABQ-KLAX

FLIGHT INFORMATION

Flight Status: Arrived
Operator:
Delta Air Lines
More flights by this operator :: More flights under this callsign
Pilot: Sean Bradley (13609)
Aircraft: BOEING 757-200
(B752)
More flights by this aircraft type
Origin: KABQ Albuquerque Intl Sunport
United States
Destination: KLAX Los Angeles Intl
United States
More flights between these airports :: More routes between these airports
Route: +RDRNR3 ZUN J6 DRK J231 TNP SEAVU2
File this flight plan on PilotEdge
Remarks:
Altitude:
(Current/Filed)
34,000ft
Speed:
(Current/Filed)
430kts
Departed: 09-Jan-17 09:44 AM
Arrived: 09-Jan-17 11:44 AM
Distance/Time
Traveled:
587nm/1:59
Distance/Time
To Go:
Arrived

Flight Plot

Page will automatically refresh every two minutes.

Flight plan parsing failed; only flown route is shown


Map Options




Map Legend


Flown Route
Filed Route
Departure Airport
Arrival Airport
Navaid (VOR, NDB)
Fix

Horizontal Profiles

Position Reports

Time Latitude Longitude Heading Altitude Ground
Speed
09-Jan-17 09:14 35.047485 -106.618778 111 5317ft 0kts
09-Jan-17 09:15 35.047485 -106.618778 111 5317ft 0kts
09-Jan-17 09:16 35.047485 -106.618778 111 5317ft 0kts
09-Jan-17 09:17 35.047485 -106.618778 111 5317ft 0kts
09-Jan-17 09:18 35.047485 -106.618778 111 5317ft 0kts
09-Jan-17 09:19 35.047485 -106.618778 111 5317ft 0kts
09-Jan-17 09:20 35.047485 -106.618778 111 5317ft 0kts
09-Jan-17 09:21 35.047485 -106.618778 111 5317ft 0kts
09-Jan-17 09:22 35.047485 -106.618778 111 5317ft 0kts
09-Jan-17 09:23 35.047485 -106.618778 111 5317ft 0kts
09-Jan-17 09:24 35.047485 -106.618778 111 5316ft 0kts
09-Jan-17 09:25 35.047485 -106.618778 111 5316ft 0kts
09-Jan-17 09:26 35.047485 -106.618778 111 5316ft 0kts
09-Jan-17 09:27 35.047485 -106.618778 111 5316ft 0kts
09-Jan-17 09:28 35.047485 -106.618778 111 5316ft 0kts
09-Jan-17 09:29 35.047485 -106.618778 111 5316ft 0kts
09-Jan-17 09:30 35.047485 -106.618778 111 5316ft 0kts
09-Jan-17 09:31 35.047485 -106.618778 111 5316ft 0kts
09-Jan-17 09:32 35.047648 -106.619297 111 5315ft 2kts
09-Jan-17 09:33 35.047871 -106.619553 178 5314ft 0kts
09-Jan-17 09:34 35.047871 -106.619553 178 5314ft 0kts
09-Jan-17 09:35 35.047871 -106.619553 178 5314ft 0kts
09-Jan-17 09:36 35.047871 -106.619553 178 5314ft 0kts
09-Jan-17 09:37 35.047871 -106.619553 178 5314ft 0kts
09-Jan-17 09:38 35.047871 -106.619553 178 5314ft 0kts
09-Jan-17 09:39 35.047747 -106.619552 178 5314ft 4kts
09-Jan-17 09:40 35.046883 -106.619564 180 5314ft 0kts
09-Jan-17 09:41 35.045683 -106.619867 237 5314ft 11kts
09-Jan-17 09:42 35.045360 -106.621266 214 5308ft 0kts
09-Jan-17 09:43 35.045331 -106.621287 207 5308ft 2kts
09-Jan-17 09:44 35.044331 -106.618974 90 5315ft 50kts
09-Jan-17 09:45 35.043967 -106.576669 93 6369ft 179kts
09-Jan-17 09:46 35.072255 -106.526049 358 7234ft 256kts
09-Jan-17 09:47 35.107759 -106.565583 265 9728ft 237kts
09-Jan-17 09:48 35.089390 -106.637032 264 11425ft 294kts
09-Jan-17 09:49 35.090031 -106.745507 272 14549ft 324kts
09-Jan-17 09:50 35.101433 -106.838405 277 17011ft 340kts
09-Jan-17 09:51 35.101934 -106.937563 255 19374ft 344kts
09-Jan-17 09:52 35.084204 -107.028996 255 21341ft 354kts
09-Jan-17 09:53 35.062713 -107.137091 254 23359ft 364kts
09-Jan-17 09:54 35.038448 -107.249655 256 25127ft 375kts
09-Jan-17 09:55 35.031697 -107.372078 265 26703ft 388kts
09-Jan-17 09:56 35.027474 -107.499639 266 28179ft 397kts
09-Jan-17 09:57 35.023156 -107.630724 267 29501ft 406kts
09-Jan-17 09:58 35.018709 -107.762098 266 30767ft 414kts
09-Jan-17 09:59 35.013993 -107.897263 266 32503ft 407kts
09-Jan-17 10:00 35.009097 -108.033325 267 34128ft 399kts
09-Jan-17 10:01 35.004141 -108.167192 267 34361ft 397kts
09-Jan-17 10:02 35.000101 -108.298926 267 34357ft 392kts
09-Jan-17 10:03 34.995561 -108.432152 267 34359ft 394kts
09-Jan-17 10:04 34.990323 -108.565118 267 34354ft 394kts
09-Jan-17 10:05 34.984994 -108.694146 266 34308ft 394kts
09-Jan-17 10:06 34.979378 -108.826303 266 34304ft 391kts
09-Jan-17 10:07 34.974109 -108.947015 266 34301ft 390kts
09-Jan-17 10:08 34.968291 -109.072923 265 34302ft 390kts
09-Jan-17 10:09 34.961265 -109.201334 265 34306ft 391kts
09-Jan-17 10:10 34.953171 -109.329042 264 34307ft 389kts
09-Jan-17 10:11 34.944850 -109.453745 264 34299ft 389kts
09-Jan-17 10:12 34.936380 -109.578038 264 34303ft 389kts
09-Jan-17 10:13 34.927986 -109.699136 263 34313ft 389kts
09-Jan-17 10:14 34.919258 -109.823342 263 34310ft 387kts
09-Jan-17 10:15 34.909715 -109.947688 263 34309ft 387kts
09-Jan-17 10:16 34.900427 -110.072759 263 34266ft 387kts
09-Jan-17 10:17 34.892451 -110.180858 263 34261ft 387kts
09-Jan-17 10:18 34.883131 -110.306139 263 34261ft 386kts
09-Jan-17 10:19 34.873744 -110.430633 263 34259ft 386kts
09-Jan-17 10:20 34.864289 -110.554333 263 34262ft 387kts
09-Jan-17 10:21 34.854966 -110.674676 262 34272ft 386kts
09-Jan-17 10:22 34.845606 -110.798810 263 34275ft 389kts
09-Jan-17 10:23 34.835651 -110.923758 262 34266ft 389kts
09-Jan-17 10:24 34.825292 -111.048570 262 34266ft 389kts
09-Jan-17 10:25 34.814213 -111.174676 262 34267ft 389kts
09-Jan-17 10:26 34.804546 -111.289517 262 34267ft 383kts
09-Jan-17 10:27 34.797515 -111.386995 262 34268ft 385kts
09-Jan-17 10:28 34.789828 -111.484556 262 34270ft 385kts
09-Jan-17 10:29 34.781702 -111.581873 262 34263ft 384kts
09-Jan-17 10:30 34.773608 -111.676556 261 34276ft 386kts
09-Jan-17 10:31 34.765241 -111.773055 261 34284ft 382kts
09-Jan-17 10:32 34.756306 -111.868143 261 34281ft 376kts
09-Jan-17 10:33 34.747708 -111.962617 261 34279ft 377kts
09-Jan-17 10:34 34.739193 -112.057405 261 34277ft 377kts
09-Jan-17 10:35 34.730285 -112.152448 261 34250ft 377kts
09-Jan-17 10:36 34.721259 -112.247033 261 34247ft 377kts
09-Jan-17 10:37 34.711915 -112.347590 261 34243ft 380kts
09-Jan-17 10:38 34.700500 -112.470492 261 34240ft 380kts
09-Jan-17 10:39 34.686526 -112.592652 260 34238ft 380kts
09-Jan-17 10:40 34.672011 -112.715311 259 34249ft 379kts
09-Jan-17 10:41 34.657197 -112.840071 259 34254ft 378kts
09-Jan-17 10:42 34.642650 -112.961551 259 34249ft 377kts
09-Jan-17 10:43 34.628273 -113.080657 259 34246ft 377kts
09-Jan-17 10:44 34.613209 -113.204356 259 34241ft 377kts
09-Jan-17 10:45 34.598689 -113.322683 258 34240ft 377kts
09-Jan-17 10:46 34.585328 -113.442152 259 34212ft 377kts
09-Jan-17 10:47 34.573955 -113.536636 258 34202ft 377kts
09-Jan-17 10:48 34.560575 -113.641504 256 34200ft 376kts
09-Jan-17 10:49 34.537900 -113.754602 253 34217ft 375kts
09-Jan-17 10:50 34.513828 -113.866746 251 34212ft 374kts
09-Jan-17 10:51 34.490581 -113.966791 252 34207ft 374kts
09-Jan-17 10:52 34.467138 -114.077069 253 34200ft 374kts
09-Jan-17 10:53 34.442722 -114.194754 253 34216ft 375kts
09-Jan-17 10:54 34.418114 -114.313653 252 34199ft 371kts
09-Jan-17 10:55 34.393485 -114.432072 252 34190ft 371kts
09-Jan-17 10:56 34.369086 -114.548890 252 34205ft 372kts
09-Jan-17 10:57 34.347504 -114.651727 252 34203ft 372kts
09-Jan-17 10:58 34.329064 -114.739219 252 34213ft 370kts
09-Jan-17 10:59 34.308089 -114.841169 252 34216ft 369kts
09-Jan-17 11:00 34.285109 -114.959293 253 34207ft 370kts
09-Jan-17 11:01 34.261526 -115.079665 252 34210ft 369kts
09-Jan-17 11:02 34.236895 -115.196618 252 34190ft 362kts
09-Jan-17 11:03 34.213210 -115.306743 252 34220ft 365kts
09-Jan-17 11:04 34.188795 -115.418667 252 34212ft 364kts
09-Jan-17 11:05 34.162518 -115.536113 249 34210ft 364kts
09-Jan-17 11:06 34.133145 -115.651581 251 34211ft 364kts
09-Jan-17 11:07 34.110610 -115.760693 253 33558ft 345kts
09-Jan-17 11:08 34.093657 -115.877209 256 32569ft 356kts
09-Jan-17 11:09 34.077291 -115.994452 257 31541ft 359kts
09-Jan-17 11:10 34.062961 -116.094150 256 30670ft 361kts
09-Jan-17 11:11 34.047654 -116.197182 256 29799ft 365kts
09-Jan-17 11:12 34.033055 -116.294125 257 28943ft 364kts
09-Jan-17 11:13 34.019243 -116.385334 257 27859ft 359kts
09-Jan-17 11:14 34.006556 -116.468626 258 26292ft 352kts
09-Jan-17 11:15 33.999083 -116.550721 262 25113ft 355kts
09-Jan-17 11:16 33.990482 -116.659110 262 23455ft 338kts
09-Jan-17 11:17 33.982478 -116.758226 262 22327ft 337kts
09-Jan-17 11:18 33.973699 -116.865836 262 20577ft 323kts
09-Jan-17 11:19 33.966874 -116.948645 262 19421ft 311kts
09-Jan-17 11:20 33.958705 -117.046790 262 18110ft 305kts
09-Jan-17 11:21 33.953577 -117.140593 271 16967ft 294kts
09-Jan-17 11:22 33.959328 -117.232692 269 15636ft 289kts
09-Jan-17 11:23 33.962914 -117.304392 269 14459ft 286kts
09-Jan-17 11:24 33.966171 -117.372773 269 13469ft 284kts
09-Jan-17 11:25 33.969443 -117.442984 269 12529ft 281kts
09-Jan-17 11:26 33.980466 -117.511984 287 11577ft 291kts
09-Jan-17 11:27 34.003477 -117.577165 287 10558ft 287kts
09-Jan-17 11:28 34.009762 -117.632187 262 10264ft 252kts
09-Jan-17 11:29 34.006364 -117.673791 261 10105ft 232kts
09-Jan-17 11:30 34.001876 -117.725935 261 9812ft 230kts
09-Jan-17 11:31 33.998274 -117.766845 261 9525ft 238kts
09-Jan-17 11:32 33.992889 -117.825737 261 8549ft 236kts
09-Jan-17 11:33 33.988239 -117.875271 262 7914ft 217kts
09-Jan-17 11:34 33.981981 -117.940150 262 7042ft 216kts
09-Jan-17 11:35 33.975638 -118.004835 264 6066ft 215kts
09-Jan-17 11:36 33.969474 -118.067022 265 5167ft 213kts
09-Jan-17 11:37 33.963517 -118.126631 266 4266ft 214kts
09-Jan-17 11:38 33.958298 -118.178087 268 3425ft 206kts
09-Jan-17 11:39 33.952831 -118.231962 269 2669ft 186kts
09-Jan-17 11:40 33.947271 -118.287561 260 1715ft 197kts
09-Jan-17 11:41 33.942531 -118.333245 261 982ft 151kts
09-Jan-17 11:42 33.938802 -118.368976 262 349ft 137kts
09-Jan-17 11:43 33.935727 -118.398798 261 117ft 49kts
09-Jan-17 11:44 33.936186 -118.403431 291 123ft 0kts
09-Jan-17 11:45 33.936908 -118.403835 328 124ft 8kts
09-Jan-17 11:46 33.938234 -118.404382 301 125ft 4kts
09-Jan-17 11:47 33.939923 -118.405439 355 126ft 5kts
09-Jan-17 11:48 33.940213 -118.404962 81 126ft 0kts
09-Jan-17 11:49 33.940213 -118.404962 81 126ft 0kts
09-Jan-17 11:50 33.940213 -118.404962 81 126ft 0kts
09-Jan-17 11:51 33.940213 -118.404963 81 126ft 0kts
09-Jan-17 11:52 33.940213 -118.404963 81 126ft 0kts
09-Jan-17 11:53 33.940213 -118.404963 81 126ft 0kts
09-Jan-17 11:54 33.940213 -118.404963 81 126ft 0kts
09-Jan-17 11:55 33.940213 -118.404963 81 126ft 0kts
09-Jan-17 11:56 33.940213 -118.404963 81 126ft 0kts
09-Jan-17 11:57 33.940213 -118.404963 81 126ft 0kts

Navigation Log

Ident Type
Flight plan parsing failed, navigation log unavailable